Time;durP1;ratioP1;P1;durP2;ratioP2;P2;SDS_P1;SDS_P2;PMS_P1;PMS_P2;Temp;Humidity;BMP_temperature;BMP_pressure;BME280_temperature;BME280_humidity;BME280_pressure;Samples;Min_cycle;Max_cycle;Signal;HPM_P1;HPM_P2
2023/10/21 00:01:10;;;;;;;24.13;10.30;;;;;;;10.12;100.00;98182.03;6602313;22;20003;-78
2023/10/21 00:03:41;;;;;;;14.93;8.43;;;;;;;10.14;100.00;98194.97;6602000;22;20019;-77
2023/10/21 00:06:12;;;;;;;16.13;9.80;;;;;;;10.17;100.00;98195.66;6602152;22;20316;-77
2023/10/21 00:08:44;;;;;;;18.50;9.20;;;;;;;10.18;100.00;98196.50;6601801;22;20014;-79
2023/10/21 00:11:16;;;;;;;16.37;9.77;;;;;;;10.16;100.00;98188.78;6601768;22;20060;-79
2023/10/21 00:13:47;;;;;;;16.33;8.93;;;;;;;10.17;100.00;98197.41;6602184;22;20011;-78
2023/10/21 00:16:18;;;;;;;17.50;9.40;;;;;;;10.13;100.00;98207.16;6602200;22;20013;-78
2023/10/21 00:18:50;;;;;;;21.63;9.70;;;;;;;10.13;100.00;98201.94;6602057;22;20007;-77
2023/10/21 00:21:21;;;;;;;15.67;9.63;;;;;;;10.15;100.00;98207.91;6602730;22;20076;-78
2023/10/21 00:23:53;;;;;;;24.17;12.03;;;;;;;10.17;100.00;98206.06;6601811;22;20152;-77
2023/10/21 00:26:25;;;;;;;19.50;9.87;;;;;;;10.20;100.00;98212.88;6602576;22;20021;-82
2023/10/21 00:28:56;;;;;;;12.90;8.60;;;;;;;10.29;100.00;98214.16;6601690;22;20102;-78
2023/10/21 00:31:27;;;;;;;12.13;9.33;;;;;;;10.29;100.00;98225.44;6602076;22;20084;-78
2023/10/21 00:33:59;;;;;;;15.87;10.40;;;;;;;10.27;100.00;98223.81;6602178;22;20457;-79
2023/10/21 00:36:30;;;;;;;17.27;10.30;;;;;;;10.32;100.00;98235.72;6601848;22;20003;-76
2023/10/21 00:39:02;;;;;;;15.97;9.67;;;;;;;10.33;100.00;98236.53;6601731;22;20003;-78
2023/10/21 00:41:33;;;;;;;18.02;10.40;;;;;;;10.30;100.00;98236.66;6601799;22;20010;-77
2023/10/21 00:44:05;;;;;;;17.83;10.20;;;;;;;10.26;100.00;98242.97;6601709;22;20412;-78
2023/10/21 00:46:37;;;;;;;17.73;9.98;;;;;;;10.22;100.00;98239.66;6601803;22;20011;-76
2023/10/21 00:49:09;;;;;;;18.70;9.63;;;;;;;10.21;100.00;98251.03;6601834;22;20025;-78
2023/10/21 00:51:41;;;;;;;;;;;;;;;10.18;100.00;98254.63;6602657;22;20309;-78
2023/10/21 00:54:14;;;;;;;18.65;9.93;;;;;;;10.18;100.00;98261.59;6601370;22;19914;-78
2023/10/21 00:56:45;;;;;;;16.40;9.75;;;;;;;10.20;100.00;98263.19;6602465;22;20015;-78
2023/10/21 00:59:17;;;;;;;24.27;11.13;;;;;;;10.15;100.00;98262.59;6601332;22;20029;-77
2023/10/21 01:01:50;;;;;;;18.43;10.90;;;;;;;10.16;100.00;98266.06;6601790;22;20010;-78
2023/10/21 01:04:22;;;;;;;12.20;8.73;;;;;;;10.22;100.00;98268.31;6601959;22;20015;-77
2023/10/21 01:06:55;;;;;;;14.35;9.23;;;;;;;10.22;100.00;98271.78;6601407;22;20053;-78
2023/10/21 01:09:27;;;;;;;20.55;10.15;;;;;;;10.20;100.00;98286.59;6602025;22;20220;-78
2023/10/21 01:11:58;;;;;;;17.25;9.15;;;;;;;10.18;100.00;98285.84;6574502;22;20034;-77
2023/10/21 01:14:30;;;;;;;28.03;10.73;;;;;;;10.25;100.00;98281.16;6602416;22;20010;-77
2023/10/21 01:17:02;;;;;;;15.97;10.07;;;;;;;10.24;100.00;98287.31;6574216;22;20092;-78
2023/10/21 01:19:34;;;;;;;20.83;10.80;;;;;;;10.29;100.00;98274.03;6614624;22;20003;-77
2023/10/21 01:22:05;;;;;;;21.87;10.20;;;;;;;10.33;100.00;98283.41;6620614;22;20007;-78
2023/10/21 01:24:37;;;;;;;21.00;10.90;;;;;;;10.34;100.00;98293.75;6610424;22;20007;-78
2023/10/21 01:27:08;;;;;;;17.00;10.30;;;;;;;10.37;100.00;98292.75;6604702;22;20488;-78
2023/10/21 01:29:39;;;;;;;21.03;11.87;;;;;;;10.40;100.00;98292.59;6603912;22;20007;-76
2023/10/21 01:32:11;;;;;;;18.40;10.77;;;;;;;10.40;100.00;98298.66;6603871;22;20017;-77
2023/10/21 01:34:42;;;;;;;16.87;9.70;;;;;;;10.46;100.00;98300.06;6604085;22;20007;-76
2023/10/21 01:37:13;;;;;;;15.73;10.07;;;;;;;10.46;100.00;98307.06;6604005;22;20079;-77
2023/10/21 01:39:45;;;;;;;14.47;10.40;;;;;;;10.54;100.00;98307.50;6604051;22;20415;-78
2023/10/21 01:42:16;;;;;;;16.70;9.20;;;;;;;10.56;100.00;98308.25;6603987;22;20006;-78
2023/10/21 01:44:47;;;;;;;14.03;9.27;;;;;;;10.61;100.00;98308.88;6603792;22;20003;-79
2023/10/21 01:47:19;;;;;;;19.17;10.00;;;;;;;10.62;100.00;98307.09;6603343;22;20056;-78
2023/10/21 01:49:50;;;;;;;13.17;9.77;;;;;;;10.63;100.00;98308.78;6576083;22;20010;-79
2023/10/21 01:52:22;;;;;;;12.73;9.57;;;;;;;10.64;100.00;98315.66;6575683;22;20011;-77
2023/10/21 01:54:53;;;;;;;19.07;9.17;;;;;;;10.65;100.00;98320.81;6603449;22;20068;-78
2023/10/21 01:57:24;;;;;;;14.93;9.83;;;;;;;10.66;100.00;98326.84;6603410;22;20017;-78
2023/10/21 01:59:56;;;;;;;16.77;10.07;;;;;;;10.66;100.00;98327.72;6603083;22;20006;-78
2023/10/21 02:02:28;;;;;;;19.10;10.87;;;;;;;10.66;100.00;98324.25;6603828;22;20007;-78
2023/10/21 02:04:59;;;;;;;19.35;9.82;;;;;;;10.62;100.00;98325.34;6602751;22;20085;-78
2023/10/21 02:07:36;;;;;;;32.07;10.17;;;;;;;10.59;100.00;98334.16;6603512;22;20041;-78
2023/10/21 02:10:08;;;;;;;16.83;10.13;;;;;;;10.56;100.00;98342.13;6603680;22;20439;-78
2023/10/21 02:12:40;;;;;;;16.43;9.63;;;;;;;10.56;100.00;98342.13;6576055;22;20033;-77
2023/10/21 02:15:11;;;;;;;16.20;10.33;;;;;;;10.54;100.00;98347.41;6603504;22;20297;-77
2023/10/21 02:17:47;;;;;;;18.50;10.80;;;;;;;10.52;100.00;98351.03;6603087;22;20003;-78
2023/10/21 02:20:18;;;;;;;20.00;10.82;;;;;;;10.49;100.00;98346.81;6603442;22;20296;-77
2023/10/21 02:22:49;;;;;;;17.47;10.30;;;;;;;10.49;100.00;98353.78;6603930;22;20014;-77
2023/10/21 02:25:21;;;;;;;20.80;11.60;;;;;;;10.47;100.00;98361.69;6603357;22;20002;-78
2023/10/21 02:27:52;;;;;;;17.90;11.70;;;;;;;10.46;100.00;98365.19;6603022;22;20007;-78
2023/10/21 02:30:23;;;;;;;14.07;10.57;;;;;;;10.47;100.00;98364.28;6575105;22;20068;-76
2023/10/21 02:32:55;;;;;;;16.93;11.17;;;;;;;10.47;100.00;98366.06;6603036;22;20094;-78
2023/10/21 02:35:26;;;;;;;19.30;11.77;;;;;;;10.44;100.00;98367.03;6603526;22;20014;-78
2023/10/21 02:37:57;;;;;;;25.47;10.73;;;;;;;10.43;100.00;98373.16;6602911;22;20007;-79
2023/10/21 02:40:29;;;;;;;17.67;10.90;;;;;;;10.42;100.00;98376.69;6603368;22;20007;-77
2023/10/21 02:43:00;;;;;;;15.70;11.03;;;;;;;10.41;100.00;98380.22;6603234;22;20419;-77
2023/10/21 02:45:32;;;;;;;18.10;10.47;;;;;;;10.44;100.00;98369.66;6602992;22;20007;-78
2023/10/21 02:48:03;;;;;;;16.60;10.50;;;;;;;10.38;100.00;98373.41;6602976;22;20083;-77
2023/10/21 02:50:35;;;;;;;18.87;11.13;;;;;;;10.44;100.00;98382.66;6602970;22;20007;-78
2023/10/21 02:53:06;;;;;;;21.83;11.17;;;;;;;10.36;100.00;98384.81;6575096;22;20021;-77
2023/10/21 02:55:37;;;;;;;17.63;11.03;;;;;;;10.37;100.00;98389.94;6602999;22;20002;-78
2023/10/21 02:58:09;;;;;;;15.43;10.53;;;;;;;10.42;100.00;98396.66;6602492;22;20026;-79
2023/10/21 03:00:40;;;;;;;14.17;10.63;;;;;;;10.43;100.00;98396.59;6603102;22;20030;-78
2023/10/21 03:03:11;;;;;;;15.33;10.10;;;;;;;10.41;100.00;98398.44;6602438;22;20014;-78
2023/10/21 03:05:43;;;;;;;16.50;10.07;;;;;;;10.38;100.00;98406.41;6602416;22;20435;-78
2023/10/21 03:08:14;;;;;;;17.93;11.13;;;;;;;10.38;100.00;98402.06;6603043;22;20010;-78
2023/10/21 03:10:45;;;;;;;14.20;9.63;;;;;;;10.44;100.00;98411.31;6602757;22;20017;-78
2023/10/21 03:13:17;;;;;;;19.97;11.27;;;;;;;10.44;100.00;98415.69;6602982;22;20007;-79
2023/10/21 03:15:48;;;;;;;18.33;10.60;;;;;;;10.36;100.00;98411.69;6602701;22;20007;-78
2023/10/21 03:18:19;;;;;;;15.70;9.70;;;;;;;10.42;100.00;98412.31;6602616;22;20003;-78
2023/10/21 03:20:54;;;;;;;14.47;10.17;;;;;;;10.46;100.00;98421.66;6603000;22;20030;-77
2023/10/21 03:23:26;;;;;;;17.98;9.77;;;;;;;10.40;100.00;98417.63;6602409;22;20003;-77
2023/10/21 03:26:01;;;;;;;20.53;9.90;;;;;;;10.40;100.00;98425.44;6602648;22;20003;-78
2023/10/21 03:28:34;;;;;;;15.98;9.50;;;;;;;10.39;100.00;98419.34;6602281;22;20066;-77
2023/10/21 03:31:05;;;;;;;13.93;10.27;;;;;;;10.41;100.00;98427.09;6603060;22;20074;-77
2023/10/21 03:33:37;;;;;;;18.57;9.80;;;;;;;10.42;100.00;98434.00;6602836;22;20026;-77
2023/10/21 03:36:08;;;;;;;18.60;10.23;;;;;;;10.37;100.00;98441.22;6602717;22;20081;-78
2023/10/21 03:38:40;;;;;;;13.20;9.97;;;;;;;10.33;100.00;98437.06;6574972;22;19999;-77
2023/10/21 03:41:12;;;;;;;14.63;9.50;;;;;;;10.32;100.00;98444.03;6602872;22;20011;-77
2023/10/21 03:43:43;;;;;;;14.20;9.83;;;;;;;10.35;100.00;98449.09;6602179;22;20006;-76
2023/10/21 03:46:14;;;;;;;15.90;10.10;;;;;;;10.34;100.00;98454.38;6602406;22;20030;-77
2023/10/21 03:48:46;;;;;;;16.43;9.63;;;;;;;10.38;100.00;98458.50;6602707;22;20014;-77
2023/10/21 03:51:17;;;;;;;14.50;9.63;;;;;;;10.37;100.00;98447.25;6602368;22;20098;-76
2023/10/21 03:53:49;;;;;;;15.17;9.83;;;;;;;10.35;100.00;98467.31;6602374;22;20442;-77
2023/10/21 03:56:20;;;;;;;14.80;9.50;;;;;;;10.36;100.00;98465.56;6576186;22;20009;-76
2023/10/21 03:58:52;;;;;;;14.73;9.17;;;;;;;10.38;100.00;98466.31;6610275;22;20026;-77
2023/10/21 04:01:23;;;;;;;18.57;9.33;;;;;;;10.40;100.00;98474.91;6613281;22;20003;-76
2023/10/21 04:03:54;;;;;;;13.10;9.17;;;;;;;10.44;100.00;98483.41;6613261;22;20014;-78
2023/10/21 04:06:25;;;;;;;14.93;9.00;;;;;;;10.41;100.00;98479.19;6607828;22;20407;-78
2023/10/21 04:08:57;;;;;;;11.73;8.80;;;;;;;10.45;100.00;98483.34;6603306;22;20007;-77
2023/10/21 04:11:28;;;;;;;14.57;8.83;;;;;;;10.47;100.00;98491.91;6602491;22;20040;-76
2023/10/21 04:13:59;;;;;;;16.43;9.00;;;;;;;10.49;100.00;98492.66;6602690;22;20007;-77
2023/10/21 04:16:32;;;;;;;20.30;9.27;;;;;;;10.56;100.00;98499.28;6602417;22;20487;-76
2023/10/21 04:19:03;;;;;;;14.88;8.95;;;;;;;10.51;100.00;98501.28;6574635;22;20014;-77
2023/10/21 04:21:34;;;;;;;14.70;8.17;;;;;;;10.64;100.00;98509.31;6602801;22;20007;-76
2023/10/21 04:24:06;;;;;;;14.97;9.00;;;;;;;10.64;100.00;98506.72;6601726;22;20010;-77
2023/10/21 04:26:38;;;;;;;12.23;8.25;;;;;;;10.64;100.00;98517.16;6602115;22;20006;-77
2023/10/21 04:29:09;;;;;;;15.40;8.97;;;;;;;10.68;100.00;98515.22;6602433;22;20009;-78
2023/10/21 04:31:40;;;;;;;15.53;8.70;;;;;;;10.61;100.00;98514.69;6601953;22;20007;-78
2023/10/21 04:34:12;;;;;;;13.03;9.27;;;;;;;10.67;100.00;98521.34;6602285;22;20328;-77
2023/10/21 04:36:43;;;;;;;16.07;8.90;;;;;;;10.64;100.00;98526.69;6602177;22;20420;-79
2023/10/21 04:39:16;;;;;;;14.57;9.60;;;;;;;10.68;100.00;98530.84;6602367;22;20065;-78
2023/10/21 04:41:48;;;;;;;;;;;;;;;10.59;100.00;98537.34;6602636;22;20014;-78
2023/10/21 04:44:20;;;;;;;19.02;9.00;;;;;;;10.60;100.00;98533.00;6602386;22;20291;-78
2023/10/21 04:46:51;;;;;;;23.90;11.20;;;;;;;10.59;100.00;98539.94;6602223;22;20124;-76
2023/10/21 04:49:23;;;;;;;16.23;9.37;;;;;;;10.62;100.00;98539.81;6601764;22;20229;-78
2023/10/21 04:51:54;;;;;;;16.87;9.60;;;;;;;10.57;100.00;98542.63;6601811;22;20007;-77
2023/10/21 04:54:26;;;;;;;18.83;9.90;;;;;;;10.61;100.00;98543.34;6602107;22;20085;-76
2023/10/21 04:56:57;;;;;;;19.33;10.53;;;;;;;10.67;100.00;98553.44;6602190;22;20015;-77
2023/10/21 04:59:28;;;;;;;15.87;9.50;;;;;;;10.65;100.00;98559.66;6602365;22;20034;-76
2023/10/21 05:02:00;;;;;;;24.47;10.97;;;;;;;10.49;100.00;98565.59;6602479;22;20434;-78
2023/10/21 05:04:32;;;;;;;21.57;9.40;;;;;;;10.50;100.00;98561.25;6602292;22;20015;-77
2023/10/21 05:07:03;;;;;;;23.95;10.40;;;;;;;10.44;100.00;98575.41;6574457;22;20006;-76
2023/10/21 05:09:35;;;;;;;16.83;9.40;;;;;;;10.53;100.00;98566.31;6601911;22;20082;-77
2023/10/21 05:12:06;;;;;;;15.43;9.13;;;;;;;10.58;100.00;98570.38;6602113;22;19999;-79
2023/10/21 05:14:38;;;;;;;20.60;9.50;;;;;;;10.46;100.00;98581.38;6601980;22;20313;-78
2023/10/21 05:17:09;;;;;;;16.10;9.23;;;;;;;10.45;100.00;98577.09;6601691;22;20052;-78
2023/10/21 05:19:41;;;;;;;18.27;10.43;;;;;;;10.42;100.00;98581.59;6573805;22;20031;-78
2023/10/21 05:22:13;;;;;;;19.43;10.07;;;;;;;10.32;100.00;98586.34;6601394;22;20037;-78
2023/10/21 05:24:44;;;;;;;15.43;9.02;;;;;;;10.33;100.00;98588.09;6602126;22;20049;-78
2023/10/21 05:27:15;;;;;;;15.37;9.30;;;;;;;10.37;100.00;98587.03;6602094;22;20007;-78
2023/10/21 05:29:47;;;;;;;16.17;8.20;;;;;;;10.54;100.00;98604.47;6573728;22;20018;-79
2023/10/21 05:32:18;;;;;;;17.10;9.57;;;;;;;10.45;100.00;98605.75;6601691;22;20119;-78
2023/10/21 05:34:50;;;;;;;16.77;8.77;;;;;;;10.54;100.00;98599.25;6601555;22;20007;-77
2023/10/21 05:37:21;;;;;;;21.67;10.10;;;;;;;10.60;100.00;98606.78;6573649;22;20440;-77
2023/10/21 05:39:52;;;;;;;16.87;9.63;;;;;;;10.64;100.00;98610.94;6574597;22;20415;-77
2023/10/21 05:42:24;;;;;;;18.53;9.47;;;;;;;10.69;100.00;98618.50;6600908;22;20003;-76
2023/10/21 05:44:55;;;;;;;19.33;10.47;;;;;;;10.81;100.00;98622.31;6601084;22;20006;-78
2023/10/21 05:47:27;;;;;;;22.97;10.30;;;;;;;10.87;100.00;98622.00;6601243;22;20093;-78
2023/10/21 05:49:58;;;;;;;18.40;10.37;;;;;;;10.88;100.00;98627.16;6601615;22;20006;-78
2023/10/21 05:52:30;;;;;;;14.10;10.03;;;;;;;10.94;100.00;98626.00;6600893;22;20007;-77
2023/10/21 05:55:05;;;;;;;20.53;10.00;;;;;;;10.99;100.00;98641.41;6601007;22;20017;-77
2023/10/21 05:57:36;;;;;;;24.40;9.63;;;;;;;11.01;100.00;98636.97;6600950;22;20011;-77
2023/10/21 06:00:08;;;;;;;12.57;9.23;;;;;;;11.05;100.00;98636.75;6600645;22;20129;-77
2023/10/21 06:02:40;;;;;;;15.27;8.88;;;;;;;11.07;100.00;98632.28;6600969;22;20380;-77
2023/10/21 06:05:14;;;;;;;17.00;8.70;;;;;;;11.07;100.00;98644.50;6601590;22;20098;-77
2023/10/21 06:07:45;;;;;;;13.35;8.68;;;;;;;11.10;100.00;98650.38;6604181;22;20089;-76
2023/10/21 06:10:16;;;;;;;20.27;9.80;;;;;;;11.11;100.00;98651.25;6603169;22;20034;-76
2023/10/21 06:12:48;;;;;;;15.47;9.93;;;;;;;11.13;100.00;98665.88;6603253;22;20003;-78
2023/10/21 06:15:19;;;;;;;17.33;9.20;;;;;;;11.16;100.00;98675.34;6603035;22;20078;-77
2023/10/21 06:17:51;;;;;;;16.70;8.90;;;;;;;11.26;100.00;98676.56;6603349;22;20420;-77
2023/10/21 06:20:22;;;;;;;18.83;9.43;;;;;;;11.21;100.00;98677.72;6603118;22;20013;-78
2023/10/21 06:22:53;;;;;;;16.33;7.57;;;;;;;11.27;100.00;98687.81;6603062;22;20124;-78
2023/10/21 06:25:25;;;;;;;19.17;8.23;;;;;;;11.29;100.00;98691.22;6603284;22;20045;-78
2023/10/21 06:27:58;;;;;;;15.03;8.37;;;;;;;11.31;100.00;98705.84;6602859;22;20067;-79
2023/10/21 06:30:29;;;;;;;13.55;7.53;;;;;;;11.36;100.00;98712.63;6602090;22;20018;-78
2023/10/21 06:33:01;;;;;;;14.77;7.53;;;;;;;11.40;100.00;98717.63;6603182;22;20002;-77
2023/10/21 06:35:32;;;;;;;15.83;8.57;;;;;;;11.41;100.00;98710.63;6603721;22;20029;-77
2023/10/21 06:38:05;;;;;;;14.27;7.50;;;;;;;11.46;100.00;98717.31;6605620;22;20002;-78
2023/10/21 06:40:36;;;;;;;;;;;;;;;11.50;100.00;98726.66;6617321;22;20013;-78
2023/10/21 06:43:07;;;;;;;12.63;7.95;;;;;;;11.53;100.00;98722.22;6627057;22;19899;-79
2023/10/21 06:45:39;;;;;;;12.87;7.53;;;;;;;11.55;100.00;98731.66;6611624;22;20007;-78
2023/10/21 06:48:10;;;;;;;14.73;7.13;;;;;;;11.58;100.00;98730.69;6604542;22;20027;-79
2023/10/21 06:50:41;;;;;;;15.53;7.27;;;;;;;11.61;100.00;98747.03;6604264;22;20055;-77
2023/10/21 06:53:14;;;;;;;19.23;7.90;;;;;;;11.64;100.00;98749.47;6602767;22;20014;-78
2023/10/21 06:55:45;;;;;;;15.65;7.20;;;;;;;11.65;100.00;98753.75;6605737;22;20010;-78
2023/10/21 06:58:16;;;;;;;15.27;7.30;;;;;;;11.66;100.00;98752.84;6603998;22;20007;-78
2023/10/21 07:00:48;;;;;;;14.67;7.97;;;;;;;11.69;100.00;98757.09;6602596;22;20014;-78
2023/10/21 07:03:21;;;;;;;13.67;5.90;;;;;;;11.74;100.00;98757.69;6602536;22;20019;-79
2023/10/21 07:05:52;;;;;;;14.82;7.97;;;;;;;11.76;100.00;98768.91;6602835;22;20093;-78
2023/10/21 07:08:24;;;;;;;12.13;6.37;;;;;;;11.79;100.00;98762.69;6603030;22;20049;-77
2023/10/21 07:10:56;;;;;;;13.67;6.07;;;;;;;11.83;100.00;98779.88;6602841;22;20013;-77
2023/10/21 07:13:28;;;;;;;9.60;5.65;;;;;;;11.86;100.00;98782.31;6575704;22;20011;-78
2023/10/21 07:16:06;;;;;;;9.90;4.97;;;;;;;11.83;100.00;98792.91;6550662;22;20006;-79
2023/10/21 07:18:38;;;;;;;8.68;6.53;;;;;;;11.81;100.00;98811.28;6606308;22;20018;-78
2023/10/21 07:21:09;;;;;;;9.57;6.43;;;;;;;11.79;100.00;98814.91;6577121;22;20412;-79
2023/10/21 07:23:40;;;;;;;8.63;7.30;;;;;;;11.79;100.00;98831.38;6578282;22;20003;-78
2023/10/21 07:26:12;;;;;;;8.47;5.23;;;;;;;11.73;100.00;98841.28;6578322;22;20011;-77
2023/10/21 07:28:44;;;;;;;3.87;2.40;;;;;;;11.46;100.00;98862.56;6608441;22;20002;-83
2023/10/21 07:31:15;;;;;;;4.13;2.33;;;;;;;11.35;100.00;98865.69;6609907;22;20010;-82
2023/10/21 07:33:49;;;;;;;4.60;2.03;;;;;;;11.37;100.00;98881.28;6608982;22;20017;-81
2023/10/21 07:36:21;;;;;;;3.10;1.85;;;;;;;11.37;100.00;98879.50;6608459;22;20036;-81
2023/10/21 07:38:53;;;;;;;4.67;2.70;;;;;;;11.34;100.00;98894.47;6609991;22;20058;-80
2023/10/21 07:41:25;;;;;;;;;;;;;;;11.36;100.00;98895.22;6612728;22;20324;-82
2023/10/21 07:43:56;;;;;;;4.30;2.35;;;;;;;11.40;100.00;98894.16;6613668;22;19914;-83
2023/10/21 07:46:28;;;;;;;6.73;2.93;;;;;;;11.43;100.00;98914.88;6585542;22;20006;-80
2023/10/21 07:48:59;;;;;;;4.88;2.47;;;;;;;11.42;100.00;98918.44;6611300;22;20293;-81
2023/10/21 07:51:31;;;;;;;4.73;1.67;;;;;;;11.44;100.00;98927.03;6605979;22;20055;-82
2023/10/21 07:54:03;;;;;;;2.83;1.60;;;;;;;11.46;100.00;98935.63;6603997;22;20009;-82
2023/10/21 07:56:34;;;;;;;5.43;1.80;;;;;;;11.42;100.00;98932.31;6604007;22;20007;-80
2023/10/21 07:59:05;;;;;;;3.77;1.63;;;;;;;11.48;100.00;98936.41;6577123;22;20144;-81
2023/10/21 08:01:38;;;;;;;2.90;1.60;;;;;;;11.52;100.00;98943.16;6605909;22;20087;-82
2023/10/21 08:04:09;;;;;;;5.32;1.77;;;;;;;11.56;100.00;98949.09;6606060;22;19998;-83
2023/10/21 08:06:44;;;;;;;4.67;1.60;;;;;;;11.66;100.00;98952.97;6604325;22;20025;-84
2023/10/21 08:09:17;;;;;;;5.18;2.25;;;;;;;11.78;100.00;98956.75;6575840;22;20014;-83
2023/10/21 08:11:48;;;;;;;3.10;1.50;;;;;;;11.86;100.00;98967.69;6602432;22;20011;-82
2023/10/21 08:14:20;;;;;;;5.53;2.07;;;;;;;11.95;100.00;98966.47;6602325;22;20011;-81
2023/10/21 08:16:51;;;;;;;4.03;2.03;;;;;;;12.08;100.00;98977.16;6603278;22;20003;-83
2023/10/21 08:19:24;;;;;;;4.37;2.50;;;;;;;12.15;100.00;98970.72;6602111;22;20052;-85
2023/10/21 08:21:55;;;;;;;5.53;1.98;;;;;;;12.22;100.00;98988.63;6607238;22;20010;-83
2023/10/21 08:24:27;;;;;;;2.77;1.27;;;;;;;12.27;100.00;98982.31;6574665;22;20049;-83
2023/10/21 08:26:59;;;;;;;3.90;1.90;;;;;;;12.32;100.00;98981.19;6602768;22;19999;-84
2023/10/21 08:29:30;;;;;;;5.70;2.37;;;;;;;12.49;100.00;98984.72;6604161;22;20013;-84
2023/10/21 08:32:02;;;;;;;5.77;1.70;;;;;;;12.48;100.00;98993.53;6603084;22;20225;-82
2023/10/21 08:34:36;;;;;;;3.60;1.83;;;;;;;12.68;100.00;99003.81;6575367;22;20011;-81
2023/10/21 08:37:08;;;;;;;4.53;2.05;;;;;;;12.78;100.00;98993.72;6601560;22;20010;-82
2023/10/21 08:39:39;;;;;;;6.13;2.17;;;;;;;12.82;100.00;99010.97;6601925;22;20003;-81
2023/10/21 08:42:11;;;;;;;5.23;1.60;;;;;;;12.87;100.00;99002.88;6601891;22;19999;-82
2023/10/21 08:44:43;;;;;;;5.93;2.07;;;;;;;12.90;100.00;99008.81;6603150;22;20030;-82
2023/10/21 08:47:18;;;;;;;6.13;2.60;;;;;;;12.87;100.00;99022.03;6602422;22;20009;-83
2023/10/21 08:49:50;;;;;;;6.32;2.42;;;;;;;12.91;100.00;99020.97;6603099;22;20086;-83
2023/10/21 08:52:23;;;;;;;5.05;1.83;;;;;;;13.01;100.00;99021.34;6602360;22;20034;-82
2023/10/21 08:54:55;;;;;;;4.97;2.25;;;;;;;12.96;100.00;99023.34;6601440;22;20018;-85
2023/10/21 08:57:27;;;;;;;6.93;2.65;;;;;;;13.11;100.00;99021.72;6601421;22;20007;-83
2023/10/21 08:59:59;;;;;;;5.37;2.47;;;;;;;13.10;100.00;99036.53;6601782;22;20013;-84
2023/10/21 09:02:30;;;;;;;7.68;2.78;;;;;;;13.16;100.00;99035.41;6573721;22;20014;-85
2023/10/21 09:05:11;;;;;;;6.33;2.30;;;;;;;13.12;100.00;99042.56;6605032;22;20015;-80
2023/10/21 09:07:47;;;;;;;4.20;1.63;;;;;;;13.23;100.00;99043.78;6603635;22;20114;-83
2023/10/21 09:10:20;;;;;;;5.95;1.77;;;;;;;13.38;100.00;99052.63;6601781;22;20007;-83
2023/10/21 09:12:52;;;;;;;6.32;2.00;;;;;;;13.62;100.00;99053.09;6602117;22;19999;-82
2023/10/21 09:15:34;;;;;;;5.53;2.07;;;;;;;13.88;100.00;99059.59;6574393;22;20242;-81
2023/10/21 09:18:10;;;;;;;4.85;1.90;;;;;;;13.93;100.00;99062.81;6602957;22;20026;-83
2023/10/21 09:20:47;;;;;;;6.38;2.03;;;;;;;14.11;100.00;99066.19;6602406;22;20007;-84
2023/10/21 09:23:18;;;;;;;3.50;2.33;;;;;;;14.19;100.00;99074.47;6621459;22;20011;-84
2023/10/21 09:25:51;;;;;;;4.20;2.07;;;;;;;14.00;100.00;99090.34;6623854;22;20007;-83
2023/10/21 09:28:24;;;;;;;5.88;1.52;;;;;;;13.84;100.00;99077.22;6606044;22;20130;-83
2023/10/21 09:30:57;;;;;;;;;;;;;;;13.84;100.00;99079.84;6602899;22;20077;-82
2023/10/21 09:33:28;;;;;;;4.65;1.42;;;;;;;13.82;100.00;99081.69;6602837;22;19903;-81
2023/10/21 09:36:04;;;;;;;4.93;1.70;;;;;;;14.00;100.00;99074.63;6602671;22;20003;-83
2023/10/21 09:38:37;;;;;;;2.80;1.40;;;;;;;13.98;100.00;99078.28;6602146;22;20030;-82
2023/10/21 09:41:08;;;;;;;6.00;1.88;;;;;;;13.98;99.25;99086.97;6604292;22;20013;-84
2023/10/21 09:43:41;;;;;;;5.50;2.17;;;;;;;14.11;99.29;99096.78;6603786;22;20038;-79
2023/10/21 09:46:13;;;;;;;;;;;;;;;14.11;97.58;99092.38;6604146;22;20007;-81
2023/10/21 09:48:48;;;;;;;;;;;;;;;14.09;100.00;99083.78;6604811;22;19909;-81
2023/10/21 09:51:21;;;;;;;8.95;1.50;;;;;;;14.09;98.24;99096.00;6603397;22;19911;-84
2023/10/21 09:54:00;;;;;;;4.85;1.40;;;;;;;14.02;96.56;99104.22;6576229;22;20305;-82
2023/10/21 09:56:33;;;;;;;3.17;1.58;;;;;;;14.16;95.61;99103.47;6604183;22;20006;-80
2023/10/21 09:59:05;;;;;;;5.65;1.60;;;;;;;13.98;94.87;99109.72;6602890;22;20013;-82
2023/10/21 10:01:39;;;;;;;3.65;1.50;;;;;;;14.57;95.75;99109.94;6606169;22;20014;-80
2023/10/21 10:04:13;;;;;;;4.00;1.30;;;;;;;15.25;90.45;99122.72;6606901;22;20174;-83
2023/10/21 10:06:55;;;;;;;4.88;1.30;;;;;;;15.06;88.56;99109.81;6577692;22;20019;-82
2023/10/21 10:09:28;;;;;;;3.28;1.58;;;;;;;15.18;88.43;99121.38;6578445;22;20021;-80
2023/10/21 10:12:03;;;;;;;4.95;2.20;;;;;;;15.36;88.17;99118.59;6579103;22;20058;-81
2023/10/21 10:14:34;;;;;;;3.47;1.55;;;;;;;15.65;83.00;99130.00;6605002;22;20026;-84
2023/10/21 10:17:06;;;;;;;6.80;1.73;;;;;;;15.41;81.53;99121.81;6604521;22;20029;-82
2023/10/21 10:19:39;;;;;;;5.57;1.60;;;;;;;15.29;81.30;99131.25;6604820;22;20372;-82
2023/10/21 10:22:17;;;;;;;3.00;1.15;;;;;;;15.50;83.01;99116.88;6605469;22;20002;-82
2023/10/21 10:24:56;;;;;;;6.30;1.90;;;;;;;16.33;81.27;99131.97;6606725;22;20006;-82
2023/10/21 10:27:40;;;;;;;6.45;1.67;;;;;;;16.76;79.00;99134.50;6577948;22;20011;-83
2023/10/21 10:30:21;;;;;;;4.45;1.60;;;;;;;16.91;73.76;99130.03;6605051;22;20006;-81
2023/10/21 10:32:52;;;;;;;6.78;1.80;;;;;;;17.21;70.58;99149.16;6604520;22;20372;-82
2023/10/21 10:35:31;;;;;;;4.00;1.52;;;;;;;17.41;71.47;99138.16;6605069;22;20083;-81
2023/10/21 10:38:32;;;;;;;5.30;2.00;;;;;;;17.75;73.21;99133.22;6604570;22;19998;-81
2023/10/21 10:41:07;;;;;;;6.10;1.88;;;;;;;17.61;68.41;99130.69;6603734;22;20026;-81
2023/10/21 10:43:41;;;;;;;8.50;2.13;;;;;;;16.74;70.22;99133.75;6602379;22;20002;-80
2023/10/21 10:46:23;;;;;;;6.28;1.70;;;;;;;16.59;75.16;99143.47;6602881;22;20010;-82
2023/10/21 10:48:54;;;;;;;5.78;1.48;;;;;;;17.44;72.89;99145.84;6603404;22;20034;-83
2023/10/21 10:51:30;;;;;;;3.03;1.53;;;;;;;17.89;72.93;99150.75;6602660;22;20034;-81
2023/10/21 10:54:05;;;;;;;6.53;1.90;;;;;;;18.03;68.34;99149.78;6604001;22;20064;-83
2023/10/21 10:56:40;;;;;;;5.20;1.75;;;;;;;17.66;68.15;99153.16;6602895;22;20090;-81
2023/10/21 10:59:14;;;;;;;7.22;2.13;;;;;;;17.21;69.11;99147.41;6604012;22;20052;-81
2023/10/21 11:01:57;;;;;;;6.63;1.80;;;;;;;18.22;73.01;99147.56;6603779;22;20411;-83
2023/10/21 11:04:29;;;;;;;7.05;2.00;;;;;;;19.51;64.13;99162.84;6603882;22;20371;-82
2023/10/21 11:07:03;;;;;;;;;;;;;;;20.00;61.33;99172.31;6611707;22;20003;-81
2023/10/21 11:09:34;;;;;;;7.22;2.00;;;;;;;19.06;57.21;99157.41;6604074;22;20289;-81
2023/10/21 11:12:06;;;;;;;8.10;2.27;;;;;;;17.85;58.72;99162.41;6604839;22;20007;-82
2023/10/21 11:14:38;;;;;;;3.57;1.80;;;;;;;16.88;62.43;99169.72;6576164;22;20014;-82
2023/10/21 11:17:10;;;;;;;5.10;1.80;;;;;;;16.13;67.02;99166.53;6603814;22;20431;-79
2023/10/21 11:19:41;;;;;;;6.28;2.10;;;;;;;16.90;71.13;99161.72;6602952;22;19999;-79
2023/10/21 11:22:26;;;;;;;5.93;2.20;;;;;;;17.28;67.73;99176.81;6604533;22;20007;-80
2023/10/21 11:24:58;;;;;;;5.80;2.20;;;;;;;18.08;64.93;99162.66;6613704;22;20028;-80
2023/10/21 11:27:29;;;;;;;6.37;1.77;;;;;;;17.98;62.22;99165.06;6615852;22;20019;-80
2023/10/21 11:30:07;;;;;;;7.47;1.93;;;;;;;17.12;64.46;99163.81;6605160;22;20021;-81
2023/10/21 11:32:38;;;;;;;5.72;1.90;;;;;;;17.03;63.54;99159.13;6602871;22;20416;-81
2023/10/21 11:35:10;;;;;;;3.63;1.70;;;;;;;17.04;64.22;99168.72;6602320;22;20017;-78
2023/10/21 11:37:42;;;;;;;6.40;2.10;;;;;;;17.11;65.88;99181.41;6602332;22;20014;-80
2023/10/21 11:40:15;;;;;;;9.13;2.08;;;;;;;17.26;62.51;99171.63;6602163;22;20007;-83
2023/10/21 11:43:00;;;;;;;5.93;2.40;;;;;;;17.37;63.06;99184.09;6601867;22;20106;-81
2023/10/21 11:45:31;;;;;;;6.97;2.58;;;;;;;17.90;61.91;99178.78;6602596;22;20030;-81